createdAt,value
2017-10-27T00:00:41.048Z,7.20
2017-10-27T00:03:09.511Z,8.47
2017-10-27T00:05:37.904Z,7.23
2017-10-27T00:08:06.327Z,9.57
2017-10-27T00:10:34.810Z,11.70
2017-10-27T00:13:03.131Z,4.20
2017-10-27T00:15:31.677Z,6.30
2017-10-27T00:18:00.096Z,5.17
2017-10-27T00:20:28.458Z,4.13
2017-10-27T00:22:56.906Z,7.77
2017-10-27T00:25:25.222Z,5.67
2017-10-27T00:27:53.537Z,4.97
2017-10-27T00:30:25.416Z,9.73
2017-10-27T00:32:53.806Z,5.20
2017-10-27T00:35:22.159Z,12.57
2017-10-27T00:37:50.540Z,6.90
2017-10-27T00:40:18.873Z,5.67
2017-10-27T00:42:47.851Z,5.60
2017-10-27T00:45:16.365Z,5.47
2017-10-27T00:47:44.723Z,5.80
2017-10-27T00:50:13.091Z,5.30
2017-10-27T00:52:41.513Z,5.57
2017-10-27T00:55:09.964Z,4.50
2017-10-27T00:57:38.424Z,4.40
2017-10-27T01:00:06.813Z,6.17
2017-10-27T01:02:35.168Z,9.03
2017-10-27T01:05:03.861Z,3.93
2017-10-27T01:07:32.240Z,4.33
2017-10-27T01:10:00.626Z,4.13
2017-10-27T01:12:28.977Z,7.40
2017-10-27T01:14:57.361Z,6.90
2017-10-27T01:17:25.684Z,7.07
2017-10-27T01:19:54.080Z,6.23
2017-10-27T01:22:22.460Z,10.47
2017-10-27T01:24:50.813Z,10.67
2017-10-27T01:27:19.190Z,4.07
2017-10-27T01:29:47.619Z,5.23
2017-10-27T01:32:15.953Z,8.10
2017-10-27T01:34:44.317Z,6.00
2017-10-27T01:37:12.754Z,5.37
2017-10-27T01:39:41.195Z,5.90
2017-10-27T01:42:09.682Z,4.77
2017-10-27T01:44:38.273Z,5.50
2017-10-27T01:47:06.719Z,8.50
2017-10-27T01:49:35.057Z,5.90
2017-10-27T01:52:03.417Z,5.43
2017-10-27T01:54:31.750Z,5.60
2017-10-27T01:57:00.071Z,6.20
2017-10-27T01:59:28.458Z,7.00
2017-10-27T02:01:56.820Z,4.90
2017-10-27T02:04:25.191Z,6.97
2017-10-27T02:06:53.662Z,6.67
2017-10-27T02:09:21.990Z,5.30
2017-10-27T02:11:51.334Z,7.37
2017-10-27T02:14:19.778Z,8.37
2017-10-27T02:16:48.094Z,9.87
2017-10-27T02:19:16.494Z,6.30
2017-10-27T02:21:44.975Z,5.27
2017-10-27T02:24:13.383Z,5.07
2017-10-27T02:26:41.741Z,5.23
2017-10-27T02:29:10.408Z,4.97
2017-10-27T02:31:40.070Z,5.63
2017-10-27T02:34:08.405Z,6.83
2017-10-27T02:36:36.857Z,3.60
2017-10-27T02:39:05.178Z,5.00
2017-10-27T02:41:33.630Z,3.23
2017-10-27T02:44:02.985Z,4.30
2017-10-27T02:46:31.446Z,5.97
2017-10-27T02:48:59.856Z,5.33
2017-10-27T02:51:28.270Z,4.40
2017-10-27T02:53:56.586Z,4.93
2017-10-27T02:56:24.940Z,16.30
2017-10-27T02:58:53.358Z,5.87
2017-10-27T03:01:21.686Z,5.40
2017-10-27T03:03:50.025Z,6.83
2017-10-27T03:06:18.443Z,5.70
2017-10-27T03:08:46.758Z,6.23
2017-10-27T03:11:15.541Z,4.80
2017-10-27T03:13:44.000Z,8.27
2017-10-27T03:16:12.430Z,8.93
2017-10-27T03:18:40.900Z,5.07
2017-10-27T03:21:09.688Z,4.00
2017-10-27T03:23:38.673Z,13.67
2017-10-27T03:26:07.093Z,7.80
2017-10-27T03:28:35.596Z,5.30
2017-10-27T03:31:03.951Z,6.23
2017-10-27T03:33:32.287Z,7.70
2017-10-27T03:36:00.694Z,6.57
2017-10-27T03:38:29.022Z,6.30
2017-10-27T03:40:57.341Z,12.33
2017-10-27T03:43:25.761Z,7.70
2017-10-27T03:45:54.141Z,6.80
2017-10-27T03:48:22.456Z,10.77
2017-10-27T03:50:51.035Z,6.47
2017-10-27T03:53:19.520Z,4.50
2017-10-27T03:55:47.897Z,5.70
2017-10-27T03:58:16.262Z,6.00
2017-10-27T04:00:44.586Z,5.90
2017-10-27T04:03:12.962Z,5.83
2017-10-27T04:05:41.345Z,4.30
2017-10-27T04:08:09.750Z,7.23
2017-10-27T04:10:38.236Z,7.37
2017-10-27T04:13:06.686Z,15.03
2017-10-27T04:15:35.538Z,8.13
2017-10-27T04:18:04.201Z,7.77
2017-10-27T04:20:32.585Z,6.60
2017-10-27T04:23:01.111Z,14.53
2017-10-27T04:25:29.461Z,6.13
2017-10-27T04:27:58.127Z,5.20
2017-10-27T04:30:26.477Z,5.60
2017-10-27T04:32:54.834Z,7.00
2017-10-27T04:35:23.318Z,7.53
2017-10-27T04:37:51.651Z,6.20
2017-10-27T04:40:20.055Z,5.40
2017-10-27T04:42:48.550Z,6.83
2017-10-27T04:45:16.971Z,13.13
2017-10-27T04:47:45.443Z,8.63
2017-10-27T04:50:14.063Z,7.10
2017-10-27T04:52:42.386Z,6.00
2017-10-27T04:55:10.887Z,7.20
2017-10-27T04:57:39.414Z,7.37
2017-10-27T05:00:07.841Z,6.87
2017-10-27T05:02:36.250Z,9.43
2017-10-27T05:05:04.666Z,10.73
2017-10-27T05:07:32.997Z,6.67
2017-10-27T05:10:01.390Z,6.80
2017-10-27T05:12:29.793Z,10.73
2017-10-27T05:14:58.297Z,6.30
2017-10-27T05:17:32.172Z,6.20
2017-10-27T05:20:06.057Z,20.43
2017-10-27T05:22:40.137Z,11.30
2017-10-27T05:25:08.608Z,12.50
2017-10-27T05:27:37.005Z,6.90
2017-10-27T05:30:05.906Z,6.30
2017-10-27T05:32:34.640Z,11.30
2017-10-27T05:35:02.996Z,11.80
2017-10-27T05:37:31.653Z,13.70
2017-10-27T05:40:00.048Z,11.50
2017-10-27T05:42:28.537Z,10.63
2017-10-27T05:44:57.186Z,14.13
2017-10-27T05:47:25.589Z,12.33
2017-10-27T05:49:54.061Z,12.60
2017-10-27T05:52:22.559Z,10.00
2017-10-27T05:54:50.916Z,12.30
2017-10-27T05:57:19.296Z,13.53
2017-10-27T05:59:47.845Z,14.23
2017-10-27T06:02:16.229Z,12.07
2017-10-27T06:04:44.858Z,15.00
2017-10-27T06:09:45.769Z,17.33
2017-10-27T06:12:14.419Z,13.53
2017-10-27T06:14:42.833Z,18.50
2017-10-27T06:17:11.255Z,27.33
2017-10-27T06:19:43.702Z,17.33
2017-10-27T06:22:12.439Z,19.03
2017-10-27T06:24:40.970Z,24.50
2017-10-27T06:27:09.369Z,21.70
2017-10-27T06:29:37.820Z,27.73
2017-10-27T06:32:06.314Z,22.03
2017-10-27T06:34:34.741Z,23.03
2017-10-27T06:37:04.254Z,26.40
2017-10-27T06:39:32.702Z,24.17
2017-10-27T06:42:01.257Z,23.93
2017-10-27T06:44:29.649Z,28.97
2017-10-27T06:46:58.044Z,24.33
2017-10-27T06:49:26.473Z,47.40
2017-10-27T06:51:54.929Z,27.77
2017-10-27T06:54:23.481Z,28.23
2017-10-27T06:56:52.002Z,31.20
2017-10-27T06:59:20.442Z,25.03
2017-10-27T07:01:48.926Z,32.53
2017-10-27T07:07:14.725Z,30.17
2017-10-27T07:09:46.848Z,32.20
2017-10-27T07:14:52.489Z,23.87
2017-10-27T07:17:20.889Z,26.77
2017-10-27T07:19:49.362Z,33.17
2017-10-27T07:24:50.592Z,27.77
2017-10-27T07:27:19.860Z,28.83
2017-10-27T07:29:48.334Z,26.10
2017-10-27T07:32:16.882Z,28.73
2017-10-27T07:34:45.472Z,28.03
2017-10-27T07:37:14.784Z,25.93
2017-10-27T07:39:43.842Z,33.10
2017-10-27T07:42:12.261Z,37.83
2017-10-27T07:47:13.395Z,33.40
2017-10-27T07:49:41.903Z,34.37
2017-10-27T07:52:10.679Z,27.67
2017-10-27T07:54:40.941Z,29.93
2017-10-27T07:57:09.601Z,33.87
2017-10-27T07:59:38.393Z,33.40
2017-10-27T08:02:06.929Z,27.27
2017-10-27T08:04:35.310Z,24.03
2017-10-27T08:07:04.734Z,28.67
2017-10-27T08:12:06.762Z,24.50
2017-10-27T08:14:37.233Z,25.87
2017-10-27T08:17:05.872Z,22.00
2017-10-27T08:22:07.047Z,23.27
2017-10-27T08:24:35.736Z,26.83
2017-10-27T08:27:04.155Z,21.47
2017-10-27T08:29:36.336Z,20.43
2017-10-27T08:32:04.822Z,27.30
2017-10-27T08:34:33.167Z,22.77
2017-10-27T08:37:03.857Z,41.90
2017-10-27T08:42:33.809Z,25.97
2017-10-27T08:45:02.152Z,22.63
2017-10-27T08:47:30.654Z,22.30
2017-10-27T08:49:59.140Z,23.80
2017-10-27T08:52:27.522Z,29.17
2017-10-27T08:54:55.956Z,32.90
2017-10-27T08:57:24.623Z,20.17
2017-10-27T08:59:53.140Z,17.50
2017-10-27T09:02:21.484Z,17.10
2017-10-27T09:04:49.991Z,13.07
2017-10-27T09:07:18.420Z,10.87
2017-10-27T09:09:46.739Z,9.33
2017-10-27T09:12:16.250Z,14.57
2017-10-27T09:14:44.687Z,7.97
2017-10-27T09:17:13.116Z,7.13
2017-10-27T09:19:43.572Z,7.63
2017-10-27T09:33:20.490Z,5.70
2017-10-27T09:35:49.080Z,6.30
2017-10-27T09:38:17.599Z,8.63
2017-10-27T09:40:45.970Z,12.83
2017-10-27T09:43:14.555Z,14.60
2017-10-27T09:45:43.031Z,9.50
2017-10-27T09:48:13.691Z,8.67
2017-10-27T09:50:42.551Z,9.13
2017-10-27T09:55:47.813Z,6.13
2017-10-27T10:03:35.615Z,9.30
2017-10-27T10:08:40.567Z,6.80
2017-10-27T10:16:21.429Z,4.67
2017-10-27T10:39:36.477Z,6.80
2017-10-27T10:55:38.522Z,5.73
2017-10-27T12:25:24.026Z,5.43
2017-10-27T12:33:34.383Z,13.03
2017-10-27T12:39:11.654Z,11.97
2017-10-27T12:41:40.328Z,13.93
2017-10-27T12:46:42.084Z,22.27
2017-10-27T12:51:43.210Z,14.53
2017-10-27T12:56:48.006Z,14.50
2017-10-27T12:59:16.938Z,13.50
2017-10-27T13:07:29.911Z,21.90
2017-10-27T13:09:58.623Z,13.90
2017-10-27T13:17:33.428Z,19.40
2017-10-27T13:22:35.251Z,21.03
2017-10-27T13:25:03.743Z,19.53
2017-10-27T13:27:32.207Z,11.57
2017-10-27T13:30:01.082Z,10.30
2017-10-27T13:35:02.878Z,11.93
2017-10-27T13:37:31.704Z,13.20
2017-10-27T13:42:34.635Z,6.63
2017-10-27T13:45:03.174Z,3.50
2017-10-27T13:47:31.592Z,7.40
2017-10-27T13:50:00.032Z,5.60
2017-10-27T13:52:50.932Z,7.13
2017-10-27T13:55:19.949Z,11.50
2017-10-27T13:57:48.439Z,6.90
2017-10-27T14:02:50.280Z,5.37
2017-10-27T14:05:19.405Z,12.00
2017-10-27T14:10:20.921Z,2.97
2017-10-27T14:15:25.594Z,8.67
2017-10-27T14:28:08.542Z,6.40
2017-10-27T14:30:37.349Z,5.37
2017-10-27T14:33:10.242Z,8.13
2017-10-27T14:35:38.873Z,6.23
2017-10-27T14:40:40.432Z,5.20
2017-10-27T14:51:04.567Z,8.93
2017-10-27T15:01:23.807Z,5.03
2017-10-27T15:03:52.282Z,5.53
2017-10-27T15:08:55.089Z,7.67
2017-10-27T15:11:23.739Z,9.80
2017-10-27T15:13:52.196Z,7.20
2017-10-27T15:24:36.923Z,10.70
2017-10-27T15:27:06.557Z,8.23
2017-10-27T15:32:09.543Z,2.50
2017-10-27T15:34:37.986Z,8.33
2017-10-27T15:39:43.378Z,6.40
2017-10-27T15:42:11.750Z,6.30
2017-10-27T15:47:15.760Z,7.97
2017-10-27T15:49:45.403Z,10.80
2017-10-27T15:59:56.644Z,8.63
2017-10-27T16:02:27.254Z,7.67
2017-10-27T16:04:56.792Z,7.50
2017-10-27T16:09:58.154Z,8.90
2017-10-27T16:12:27.180Z,10.00
2017-10-27T16:14:55.713Z,7.53
2017-10-27T16:17:24.328Z,8.37
2017-10-27T16:19:53.019Z,6.60
2017-10-27T16:24:54.491Z,12.57
2017-10-27T16:27:23.940Z,8.60
2017-10-27T16:32:27.055Z,18.50
2017-10-27T16:34:57.278Z,7.57
2017-10-27T16:40:58.147Z,13.00
2017-10-27T16:43:26.572Z,11.37
2017-10-27T16:51:39.001Z,9.10
2017-10-27T16:59:14.178Z,10.53
2017-10-27T17:04:20.748Z,10.23
2017-10-27T17:06:49.403Z,12.07
2017-10-27T17:15:01.348Z,12.70
2017-10-27T17:17:30.071Z,6.23
2017-10-27T17:20:00.515Z,11.37
2017-10-27T17:22:31.032Z,9.83
2017-10-27T17:25:00.876Z,8.33
2017-10-27T17:27:30.652Z,9.40
2017-10-27T17:32:33.851Z,6.67
2017-10-27T17:40:09.134Z,8.00
2017-10-27T17:42:37.903Z,9.80
2017-10-27T17:47:40.578Z,11.83
2017-10-27T17:52:42.143Z,17.00
2017-10-27T18:02:51.566Z,7.83
2017-10-27T18:05:20.094Z,8.60
2017-10-27T18:07:48.905Z,11.00
2017-10-27T18:10:20.900Z,6.70
2017-10-27T18:12:49.888Z,8.73
2017-10-27T18:25:41.931Z,7.47
2017-10-27T18:28:11.135Z,6.07
2017-10-27T18:30:44.322Z,13.10
2017-10-27T18:35:52.475Z,11.20
2017-10-27T18:38:21.005Z,9.77
2017-10-27T18:40:49.665Z,11.00
2017-10-27T18:43:18.098Z,10.73
2017-10-27T18:48:22.669Z,10.83
2017-10-27T18:50:53.625Z,10.03
2017-10-27T18:53:22.231Z,13.03
2017-10-27T18:55:52.513Z,8.50
2017-10-27T19:03:28.785Z,19.03
2017-10-27T19:08:31.676Z,9.63
2017-10-27T19:11:00.234Z,11.30
2017-10-27T19:13:28.667Z,15.93
2017-10-27T19:18:50.373Z,10.33
2017-10-27T19:21:18.918Z,11.53
2017-10-27T19:23:47.415Z,11.90
2017-10-27T19:28:48.429Z,15.20
2017-10-27T19:31:17.223Z,15.13
2017-10-27T19:36:24.183Z,14.67
2017-10-27T19:41:26.396Z,12.37
2017-10-27T19:43:55.722Z,11.20
2017-10-27T19:48:57.304Z,21.83
2017-10-27T19:51:25.737Z,9.83
2017-10-27T19:54:00.483Z,12.17
2017-10-27T19:56:30.293Z,16.60
2017-10-27T19:59:00.374Z,14.00
2017-10-27T20:04:09.416Z,11.47
2017-10-27T20:06:37.875Z,13.90
2017-10-27T20:09:06.262Z,17.13
2017-10-27T20:11:35.015Z,12.67
2017-10-27T20:16:37.761Z,11.60
2017-10-27T20:19:06.156Z,15.47
2017-10-27T20:21:34.571Z,9.70
2017-10-27T20:24:15.972Z,15.27
2017-10-27T20:26:44.418Z,18.57
2017-10-27T20:29:12.918Z,8.90
2017-10-27T20:31:41.594Z,14.43
2017-10-27T20:34:13.775Z,16.87
2017-10-27T20:36:42.258Z,14.03
2017-10-27T20:39:10.649Z,10.23
2017-10-27T20:41:39.171Z,9.57
2017-10-27T20:44:07.590Z,15.00
2017-10-27T20:46:36.016Z,12.83
2017-10-27T20:49:04.388Z,13.50
2017-10-27T20:51:32.938Z,12.57
2017-10-27T20:54:01.396Z,9.90
2017-10-27T20:56:29.890Z,9.70
2017-10-27T20:58:59.478Z,14.07
2017-10-27T21:01:27.960Z,26.43
2017-10-27T21:03:56.405Z,9.80
2017-10-27T21:06:26.791Z,14.40
2017-10-27T21:08:55.425Z,14.00
2017-10-27T21:11:23.845Z,15.87
2017-10-27T21:13:52.365Z,13.70
2017-10-27T21:16:20.744Z,17.17
2017-10-27T21:18:49.127Z,12.20
2017-10-27T21:21:17.569Z,12.60
2017-10-27T21:23:46.045Z,15.00
2017-10-27T21:26:14.384Z,15.53
2017-10-27T21:28:43.202Z,11.73
2017-10-27T21:31:11.610Z,18.33
2017-10-27T21:33:40.102Z,19.33
2017-10-27T21:36:08.600Z,14.00
2017-10-27T21:38:37.063Z,18.40
2017-10-27T21:41:07.188Z,17.37
2017-10-27T21:43:35.558Z,17.77
2017-10-27T21:46:03.965Z,14.00
2017-10-27T21:48:33.347Z,15.70
2017-10-27T21:51:01.792Z,18.40
2017-10-27T21:53:30.599Z,11.47
2017-10-27T21:55:59.027Z,13.90
2017-10-27T21:58:27.550Z,15.70
2017-10-27T22:00:55.933Z,17.03
2017-10-27T22:03:24.301Z,16.13
2017-10-27T22:05:52.821Z,17.67
2017-10-27T22:08:21.290Z,16.27
2017-10-27T22:10:49.690Z,16.13
2017-10-27T22:13:18.129Z,11.43
2017-10-27T22:15:46.620Z,15.30
2017-10-27T22:18:16.017Z,17.07
2017-10-27T22:20:44.482Z,14.40
2017-10-27T22:23:12.945Z,16.20
2017-10-27T22:25:41.304Z,13.00
2017-10-27T22:28:09.830Z,16.33
2017-10-27T22:30:38.253Z,16.53
2017-10-27T22:33:06.680Z,16.40
2017-10-27T22:35:35.176Z,15.30
2017-10-27T22:38:03.575Z,19.20
2017-10-27T22:40:31.979Z,24.80
2017-10-27T22:43:00.440Z,15.73
2017-10-27T22:45:28.814Z,14.67
2017-10-27T22:47:57.201Z,19.03
2017-10-27T22:50:25.718Z,17.70
2017-10-27T22:52:54.143Z,16.63
2017-10-27T22:55:32.473Z,13.03
2017-10-27T22:58:00.962Z,16.30
2017-10-27T23:00:29.347Z,20.60
2017-10-27T23:02:57.732Z,17.30
2017-10-27T23:05:26.086Z,33.73
2017-10-27T23:10:59.664Z,19.10
2017-10-27T23:13:28.097Z,19.73
2017-10-27T23:15:56.575Z,17.17
2017-10-27T23:18:25.010Z,22.10
2017-10-27T23:20:53.594Z,22.40
2017-10-27T23:23:21.998Z,14.37
2017-10-27T23:25:50.470Z,19.20
2017-10-27T23:28:18.882Z,20.33
2017-10-27T23:30:47.286Z,22.43
2017-10-27T23:33:15.661Z,18.67
2017-10-27T23:35:44.266Z,24.47
2017-10-27T23:38:12.721Z,25.10
2017-10-27T23:40:41.164Z,20.87
2017-10-27T23:43:10.543Z,23.23
2017-10-27T23:45:38.944Z,21.43
2017-10-27T23:48:07.288Z,17.50
2017-10-27T23:50:35.782Z,20.37
2017-10-27T23:53:04.872Z,17.70
2017-10-27T23:55:33.342Z,14.67
2017-10-27T23:58:01.815Z,20.90
